Harper, TX (78631)

2:16 AM CST on February 27, 2017 (GMT -0600)
7 miles SW of Harper | | Change Station

Elev 2280 ft 30.26 °N, 99.33 °W | Updated 5 minutes ago

Overcast
Overcast
62.5 °F
Feels Like 62.5 °F
N
2.0
Wind Variable Wind from South
Gusts 6.0 mph

Today
High -- | Low -- °F
--% Chance of Precip.
Yesterday
High -- | Low -- °F
Precip. -- in
Pressure 29.92 in
Visibility 5.0 miles
Clouds Overcast 700 ft
Dew Point 62 °F
Humidity 97%
Rainfall 0.00 in
Snow Depth Not available.
7:04 AM 6:34 PM
New Moon, 1% visible
METAR KT82 270755Z AUTO 14003KT 5SM BR OVC007 18/17 A2992 RMK AO2 T01760168
Pressure 29.92 in
Visibility 5.0 miles
Clouds Overcast 700 ft
Dew Point 62 °F
Humidity 97%
Rainfall 0.00 in
Snow Depth Not available.
7:04 AM 6:34 PM
New Moon, 1% visible
METAR KT82 270755Z AUTO 14003KT 5SM BR OVC007 18/17 A2992 RMK AO2 T01760168

Get Your Daily Forecast Email!

Thanks for signing up!

Be on the lookout for a verification email in your inbox.

You'll start receiving the daily forecast at 8 AM.

×

10-Day Weather Forecast

Almanac

Astronomy

Feb. 27, 2017 Rise Set
Actual Time
Civil Twilight
Nautical Twilight
Astronomical Twilight
Moon
Length of Visible Light
Length of Day
Tomorrow will be .
, % of the Moon is Illuminated

Today's Extremes

State Highs State Lows

Community

WunderPhotos

Upload Photos

1,962,540 photos uploaded!

WunderBlog® & News

Nearby

Air Quality

  Air Quality AQ Index Pollutant
Not available.

Snow Depth

Station Depth Elevation

Earthquake Activity

City Distance Mag. Time & Date
Minimum magnitude displayed is 2.5.

Coastal Water Temperatures

Place Temperature

Stations

Nearby Weather Stations

Station Location Temp. Windchill Dew Point Humidity Wind Precip. Elev Updated Type
                   

Watches & Warnings

There are currently no watches in effect.